createdAt,value
2019-03-21T00:00:54.294Z,8.10
2019-03-21T00:01:54.345Z,6.30
2019-03-21T00:02:54.397Z,6.10
2019-03-21T00:03:54.448Z,3.70
2019-03-21T00:04:54.505Z,4.60
2019-03-21T00:05:54.556Z,5.20
2019-03-21T00:06:54.602Z,7.90
2019-03-21T00:07:54.654Z,6.20
2019-03-21T00:08:54.706Z,5.00
2019-03-21T00:09:54.757Z,7.00
2019-03-21T00:10:54.810Z,8.00
2019-03-21T00:11:54.861Z,5.20
2019-03-21T00:12:54.914Z,5.80
2019-03-21T00:13:54.965Z,6.50
2019-03-21T00:14:55.017Z,8.30
2019-03-21T00:15:55.069Z,5.10
2019-03-21T00:16:55.120Z,6.20
2019-03-21T00:17:55.173Z,6.50
2019-03-21T00:18:55.226Z,6.70
2019-03-21T00:19:55.275Z,8.60
2019-03-21T00:20:55.328Z,5.80
2019-03-21T00:21:55.379Z,4.50
2019-03-21T00:22:55.434Z,6.00
2019-03-21T00:23:55.482Z,6.80
2019-03-21T00:24:55.534Z,7.30
2019-03-21T00:25:55.588Z,11.40
2019-03-21T00:26:55.637Z,6.40
2019-03-21T00:27:55.690Z,5.20
2019-03-21T00:28:55.740Z,3.90
2019-03-21T00:29:55.791Z,5.90
2019-03-21T00:30:55.844Z,4.90
2019-03-21T00:31:55.895Z,7.70
2019-03-21T00:32:55.947Z,5.60
2019-03-21T00:33:55.997Z,5.50
2019-03-21T00:34:56.050Z,6.90
2019-03-21T00:35:56.104Z,5.70
2019-03-21T00:36:56.151Z,5.00
2019-03-21T00:37:56.204Z,5.60
2019-03-21T00:38:56.257Z,6.60
2019-03-21T00:39:56.308Z,4.80
2019-03-21T00:40:56.359Z,5.30
2019-03-21T00:41:56.411Z,7.50
2019-03-21T00:42:56.462Z,5.40
2019-03-21T00:43:56.514Z,5.70
2019-03-21T00:44:56.570Z,5.80
2019-03-21T00:45:56.616Z,5.10
2019-03-21T00:46:56.667Z,4.90
2019-03-21T00:47:56.721Z,6.90
2019-03-21T00:48:56.770Z,8.80
2019-03-21T00:49:56.824Z,6.50
2019-03-21T00:50:56.874Z,5.00
2019-03-21T00:51:56.925Z,6.30
2019-03-21T00:52:56.975Z,6.60
2019-03-21T00:53:57.029Z,5.90
2019-03-21T00:54:57.079Z,6.10
2019-03-21T00:55:57.130Z,6.10
2019-03-21T00:56:57.185Z,7.90
2019-03-21T00:57:58.636Z,5.30
2019-03-21T00:58:57.287Z,7.30
2019-03-21T00:59:57.335Z,6.40
2019-03-21T01:00:57.388Z,6.80
2019-03-21T01:01:57.440Z,6.50
2019-03-21T01:02:57.490Z,4.40
2019-03-21T01:03:57.542Z,4.80
2019-03-21T01:04:57.593Z,7.40
2019-03-21T01:05:57.645Z,6.60
2019-03-21T01:06:57.697Z,4.70
2019-03-21T01:07:57.748Z,6.10
2019-03-21T01:08:57.799Z,4.60
2019-03-21T01:09:57.850Z,7.10
2019-03-21T01:10:57.913Z,5.50
2019-03-21T01:11:57.954Z,7.10
2019-03-21T01:12:58.005Z,5.50
2019-03-21T01:13:58.060Z,5.90
2019-03-21T01:14:58.109Z,5.40
2019-03-21T01:15:58.157Z,6.40
2019-03-21T01:16:58.211Z,5.30
2019-03-21T01:17:58.262Z,5.10
2019-03-21T01:18:58.316Z,5.50
2019-03-21T01:19:58.371Z,7.60
2019-03-21T01:20:58.420Z,4.10
2019-03-21T01:21:58.469Z,5.10
2019-03-21T01:22:58.519Z,5.10
2019-03-21T01:23:58.570Z,8.90
2019-03-21T01:24:58.635Z,5.20
2019-03-21T01:25:58.674Z,4.60
2019-03-21T01:26:58.726Z,5.60
2019-03-21T01:27:58.776Z,5.40
2019-03-21T01:28:58.828Z,4.20
2019-03-21T01:29:58.892Z,6.30
2019-03-21T01:30:58.931Z,8.80
2019-03-21T01:31:58.981Z,5.80
2019-03-21T01:32:59.675Z,6.00
2019-03-21T01:33:59.084Z,6.60
2019-03-21T01:34:59.135Z,5.70
2019-03-21T01:35:59.186Z,6.30
2019-03-21T01:36:59.238Z,5.50
2019-03-21T01:37:59.289Z,6.00
2019-03-21T01:38:59.340Z,5.30
2019-03-21T01:39:59.392Z,7.00
2019-03-21T01:40:59.447Z,6.60
2019-03-21T01:41:59.496Z,6.80
2019-03-21T01:42:59.550Z,6.30
2019-03-21T01:43:59.595Z,5.10
2019-03-21T01:44:59.649Z,5.50
2019-03-21T01:45:59.699Z,6.00
2019-03-21T01:46:59.750Z,7.10
2019-03-21T01:47:59.801Z,6.00
2019-03-21T01:48:59.853Z,6.10
2019-03-21T01:49:59.905Z,4.90
2019-03-21T01:50:59.957Z,5.30
2019-03-21T01:52:00.006Z,5.50
2019-03-21T01:53:00.059Z,6.00
2019-03-21T01:54:00.109Z,4.60
2019-03-21T01:55:00.338Z,8.50
2019-03-21T01:56:00.210Z,6.20
2019-03-21T01:57:00.263Z,5.20
2019-03-21T01:58:00.315Z,8.60
2019-03-21T01:59:00.365Z,5.70
2019-03-21T02:00:00.465Z,7.10
2019-03-21T02:01:00.466Z,5.20
2019-03-21T02:02:00.518Z,5.50
2019-03-21T02:03:00.576Z,6.40
2019-03-21T02:04:00.619Z,5.40
2019-03-21T02:05:00.673Z,6.40
2019-03-21T02:06:00.722Z,5.10
2019-03-21T02:07:00.778Z,5.50
2019-03-21T02:08:00.824Z,6.80
2019-03-21T02:09:00.876Z,7.40
2019-03-21T02:10:00.932Z,6.60
2019-03-21T02:11:00.979Z,6.80
2019-03-21T02:12:01.030Z,8.30
2019-03-21T02:13:01.079Z,6.50
2019-03-21T02:14:01.132Z,4.80
2019-03-21T02:15:01.182Z,7.20
2019-03-21T02:16:01.236Z,6.10
2019-03-21T02:17:01.284Z,4.10
2019-03-21T02:18:01.335Z,4.80
2019-03-21T02:19:01.387Z,4.90
2019-03-21T02:20:01.438Z,5.60
2019-03-21T02:21:01.487Z,7.50
2019-03-21T02:22:01.539Z,7.30
2019-03-21T02:23:01.645Z,6.10
2019-03-21T02:24:01.640Z,5.80
2019-03-21T02:25:01.692Z,6.20
2019-03-21T02:26:01.745Z,6.40
2019-03-21T02:27:01.795Z,5.70
2019-03-21T02:28:01.846Z,4.50
2019-03-21T02:29:01.896Z,6.80
2019-03-21T02:30:01.953Z,5.00
2019-03-21T02:31:02.119Z,6.60
2019-03-21T02:32:02.050Z,7.30
2019-03-21T02:33:02.105Z,8.20
2019-03-21T02:34:02.151Z,7.70
2019-03-21T02:35:02.205Z,7.50
2019-03-21T02:36:02.256Z,5.30
2019-03-21T02:37:02.321Z,4.70
2019-03-21T02:38:02.355Z,7.40
2019-03-21T02:39:02.408Z,6.00
2019-03-21T02:40:02.460Z,5.60
2019-03-21T02:41:02.509Z,4.00
2019-03-21T02:42:02.558Z,4.50
2019-03-21T02:43:02.607Z,6.40
2019-03-21T02:44:02.660Z,6.00
2019-03-21T02:45:08.976Z,4.80
2019-03-21T02:46:02.766Z,7.60
2019-03-21T02:47:02.811Z,4.70
2019-03-21T02:48:02.869Z,5.50
2019-03-21T02:49:02.918Z,5.20
2019-03-21T02:50:02.965Z,6.90
2019-03-21T02:51:03.026Z,5.50
2019-03-21T02:52:03.074Z,5.20
2019-03-21T02:53:03.122Z,6.80
2019-03-21T02:54:03.170Z,5.20
2019-03-21T02:55:03.230Z,5.50
2019-03-21T02:56:03.289Z,5.70
2019-03-21T02:57:03.325Z,5.50
2019-03-21T02:58:03.380Z,7.60
2019-03-21T02:59:03.425Z,6.30
2019-03-21T03:00:03.474Z,5.30
2019-03-21T03:01:03.526Z,5.10
2019-03-21T03:02:03.646Z,5.50
2019-03-21T03:03:03.636Z,5.00
2019-03-21T03:04:03.677Z,8.00
2019-03-21T03:05:03.726Z,8.40
2019-03-21T03:06:03.776Z,5.00
2019-03-21T03:07:03.843Z,6.30
2019-03-21T03:08:03.880Z,5.10
2019-03-21T03:09:03.931Z,6.30
2019-03-21T03:10:03.980Z,4.30
2019-03-21T03:11:04.036Z,5.80
2019-03-21T03:12:04.083Z,8.30
2019-03-21T03:13:04.132Z,6.40
2019-03-21T03:14:04.624Z,6.40
2019-03-21T03:15:04.239Z,7.40
2019-03-21T03:16:04.285Z,5.40
2019-03-21T03:17:04.342Z,6.80
2019-03-21T03:18:04.387Z,7.50
2019-03-21T03:19:04.442Z,5.20
2019-03-21T03:20:04.489Z,5.00
2019-03-21T03:21:04.539Z,7.10
2019-03-21T03:22:04.594Z,6.40
2019-03-21T03:23:04.640Z,9.30
2019-03-21T03:24:04.690Z,4.80
2019-03-21T03:25:04.744Z,3.70
2019-03-21T03:26:04.794Z,4.50
2019-03-21T03:27:04.843Z,7.50
2019-03-21T03:28:04.891Z,5.40
2019-03-21T03:29:04.943Z,5.70
2019-03-21T03:30:05.001Z,6.90
2019-03-21T03:31:05.046Z,8.60
2019-03-21T03:32:05.106Z,5.90
2019-03-21T03:33:05.146Z,4.90
2019-03-21T03:34:05.196Z,5.80
2019-03-21T03:35:05.259Z,5.20
2019-03-21T03:36:05.300Z,5.40
2019-03-21T03:37:05.350Z,4.70
2019-03-21T03:38:05.406Z,6.90
2019-03-21T03:39:05.454Z,9.70
2019-03-21T03:40:05.503Z,8.10
2019-03-21T03:41:05.551Z,7.60
2019-03-21T03:42:05.601Z,6.10
2019-03-21T03:43:05.656Z,7.40
2019-03-21T03:44:05.703Z,7.80
2019-03-21T03:45:05.756Z,10.20
2019-03-21T03:46:05.808Z,6.80
2019-03-21T03:47:05.853Z,5.60
2019-03-21T03:48:05.904Z,7.90
2019-03-21T03:49:05.955Z,7.50
2019-03-21T03:50:06.007Z,6.80
2019-03-21T03:51:06.055Z,6.20
2019-03-21T03:52:06.111Z,6.40
2019-03-21T03:53:06.168Z,6.20
2019-03-21T03:54:06.223Z,4.10
2019-03-21T03:55:06.258Z,7.30
2019-03-21T03:56:06.321Z,5.60
2019-03-21T03:57:06.358Z,8.90
2019-03-21T03:58:06.410Z,7.80
2019-03-21T03:59:06.459Z,7.60
2019-03-21T04:00:06.509Z,5.90
2019-03-21T04:01:06.560Z,7.30
2019-03-21T04:02:06.611Z,7.60
2019-03-21T04:03:06.662Z,7.60
2019-03-21T04:04:06.719Z,6.00
2019-03-21T04:05:06.761Z,6.00
2019-03-21T04:06:06.818Z,4.70
2019-03-21T04:07:06.863Z,7.00
2019-03-21T04:08:06.913Z,6.40
2019-03-21T04:09:06.964Z,6.90
2019-03-21T04:10:07.015Z,6.00
2019-03-21T04:11:07.065Z,6.00
2019-03-21T04:12:07.120Z,5.00
2019-03-21T04:13:07.167Z,7.40
2019-03-21T04:14:07.226Z,8.00
2019-03-21T04:15:07.282Z,6.20
2019-03-21T04:16:07.323Z,6.20
2019-03-21T04:17:07.371Z,5.30
2019-03-21T04:18:07.429Z,6.80
2019-03-21T04:19:07.480Z,6.20
2019-03-21T04:20:07.517Z,8.20
2019-03-21T04:21:07.566Z,7.90
2019-03-21T04:22:07.618Z,8.30
2019-03-21T04:23:07.671Z,4.60
2019-03-21T04:24:07.722Z,4.70
2019-03-21T04:25:07.768Z,6.70
2019-03-21T04:26:07.820Z,9.80
2019-03-21T04:27:07.872Z,5.90
2019-03-21T04:28:07.921Z,5.90
2019-03-21T04:29:07.975Z,5.90
2019-03-21T04:30:08.027Z,7.10
2019-03-21T04:31:08.071Z,4.70
2019-03-21T04:32:08.122Z,4.90
2019-03-21T04:33:08.170Z,5.00
2019-03-21T04:34:08.233Z,7.40
2019-03-21T04:35:08.273Z,5.80
2019-03-21T04:36:08.323Z,11.70
2019-03-21T04:37:08.375Z,6.10
2019-03-21T04:38:08.429Z,4.90
2019-03-21T04:39:08.477Z,7.30
2019-03-21T04:40:08.523Z,5.20
2019-03-21T04:41:08.581Z,5.20
2019-03-21T04:42:08.625Z,6.00
2019-03-21T04:43:08.675Z,6.40
2019-03-21T04:44:08.724Z,5.70
2019-03-21T04:45:08.775Z,9.00
2019-03-21T04:46:08.826Z,6.10
2019-03-21T04:47:08.877Z,7.70
2019-03-21T04:48:08.926Z,6.30
2019-03-21T04:49:08.986Z,7.20
2019-03-21T04:50:09.029Z,6.60
2019-03-21T04:51:09.307Z,4.70
2019-03-21T04:52:09.132Z,5.20
2019-03-21T04:53:09.178Z,7.40
2019-03-21T04:54:09.228Z,8.10
2019-03-21T04:55:09.279Z,6.90
2019-03-21T04:56:09.327Z,6.60
2019-03-21T04:57:09.380Z,5.80
2019-03-21T04:58:09.429Z,7.30
2019-03-21T04:59:09.489Z,5.50
2019-03-21T05:00:09.529Z,6.20
2019-03-21T05:01:09.601Z,7.10
2019-03-21T05:02:09.630Z,5.10
2019-03-21T05:03:09.681Z,5.50
2019-03-21T05:04:09.733Z,6.60
2019-03-21T05:05:09.779Z,7.00
2019-03-21T05:06:09.830Z,6.00
2019-03-21T05:07:09.882Z,5.80
2019-03-21T05:08:09.930Z,5.80
2019-03-21T05:09:09.986Z,6.40
2019-03-21T05:10:10.031Z,5.70
2019-03-21T05:11:10.081Z,5.80
2019-03-21T05:12:10.132Z,9.50
2019-03-21T05:13:10.182Z,8.20
2019-03-21T05:14:10.235Z,8.10
2019-03-21T05:15:10.283Z,6.50
2019-03-21T05:16:14.749Z,7.80
2019-03-21T05:17:10.383Z,6.60
2019-03-21T05:18:10.434Z,8.50
2019-03-21T05:19:10.483Z,6.20
2019-03-21T05:20:10.533Z,11.10
2019-03-21T05:21:10.586Z,7.30
2019-03-21T05:22:10.634Z,9.60
2019-03-21T05:23:10.685Z,6.50
2019-03-21T05:24:10.734Z,8.50
2019-03-21T05:25:10.790Z,7.50
2019-03-21T05:26:10.836Z,7.60
2019-03-21T05:27:10.886Z,7.90
2019-03-21T05:28:10.935Z,7.10
2019-03-21T05:29:10.987Z,8.20
2019-03-21T05:30:11.035Z,9.40
2019-03-21T05:31:11.090Z,7.80
2019-03-21T05:32:11.135Z,5.50
2019-03-21T05:33:11.187Z,6.60
2019-03-21T05:34:11.236Z,6.30
2019-03-21T05:35:11.288Z,7.90
2019-03-21T05:36:11.392Z,7.70
2019-03-21T05:37:11.388Z,6.90
2019-03-21T05:38:11.439Z,6.80
2019-03-21T05:39:11.525Z,8.10
2019-03-21T05:40:11.543Z,11.90
2019-03-21T05:41:11.589Z,7.40
2019-03-21T05:42:11.639Z,8.30
2019-03-21T05:43:11.692Z,6.90
2019-03-21T05:44:11.803Z,7.60
2019-03-21T05:45:11.793Z,9.20
2019-03-21T05:46:11.840Z,9.30
2019-03-21T05:47:11.890Z,7.40
2019-03-21T05:48:11.942Z,6.60
2019-03-21T05:49:11.992Z,8.90
2019-03-21T05:50:12.041Z,6.90
2019-03-21T05:51:12.093Z,7.60
2019-03-21T05:52:12.175Z,7.50
2019-03-21T05:53:12.193Z,9.20
2019-03-21T05:54:12.243Z,8.60
2019-03-21T05:55:12.298Z,8.50
2019-03-21T05:56:12.343Z,9.50
2019-03-21T05:57:12.399Z,8.90
2019-03-21T05:58:12.530Z,8.00
2019-03-21T05:59:12.497Z,10.50
2019-03-21T06:00:12.546Z,7.90
2019-03-21T06:01:12.603Z,10.60
2019-03-21T06:02:12.650Z,7.00
2019-03-21T06:03:12.698Z,7.30
2019-03-21T06:04:12.749Z,7.40
2019-03-21T06:05:12.798Z,9.20
2019-03-21T06:06:12.852Z,6.70
2019-03-21T06:07:12.901Z,10.70
2019-03-21T06:08:12.949Z,6.20
2019-03-21T06:09:13.000Z,13.00
2019-03-21T06:10:13.052Z,7.90
2019-03-21T06:11:13.103Z,8.30
2019-03-21T06:12:13.152Z,8.40
2019-03-21T06:13:13.203Z,7.90
2019-03-21T06:14:13.255Z,9.60
2019-03-21T06:15:13.306Z,11.00
2019-03-21T06:16:13.363Z,7.50
2019-03-21T06:17:13.408Z,8.80
2019-03-21T06:18:13.457Z,9.80
2019-03-21T06:19:13.509Z,7.90
2019-03-21T06:20:13.561Z,8.50
2019-03-21T06:21:13.611Z,8.40
2019-03-21T06:22:13.671Z,10.70
2019-03-21T06:23:13.713Z,8.10
2019-03-21T06:24:13.763Z,9.30
2019-03-21T06:25:15.878Z,8.90
2019-03-21T06:26:13.867Z,12.20
2019-03-21T06:27:14.969Z,9.20
2019-03-21T06:28:14.591Z,7.70
2019-03-21T06:29:14.018Z,8.50
2019-03-21T06:30:14.070Z,10.60
2019-03-21T06:31:14.120Z,9.60
2019-03-21T06:32:14.169Z,10.20
2019-03-21T06:33:14.222Z,11.40
2019-03-21T06:34:14.277Z,9.20
2019-03-21T06:35:14.325Z,12.40
2019-03-21T06:36:14.385Z,9.20
2019-03-21T06:37:14.427Z,8.90
2019-03-21T06:38:14.477Z,8.00
2019-03-21T06:39:14.529Z,8.70
2019-03-21T06:40:14.578Z,10.80
2019-03-21T06:41:14.631Z,10.40
2019-03-21T06:42:14.683Z,7.30
2019-03-21T06:43:14.734Z,9.10
2019-03-21T06:44:14.786Z,8.20
2019-03-21T06:45:14.837Z,11.70
2019-03-21T06:46:14.887Z,9.10
2019-03-21T06:47:14.939Z,8.70
2019-03-21T06:48:14.994Z,7.60
2019-03-21T06:49:15.043Z,10.40
2019-03-21T06:50:15.094Z,9.30
2019-03-21T06:51:15.146Z,6.70
2019-03-21T06:52:15.198Z,8.30
2019-03-21T06:53:15.252Z,11.50
2019-03-21T06:54:15.300Z,7.40
2019-03-21T06:55:15.353Z,11.90
2019-03-21T06:56:15.407Z,8.40
2019-03-21T06:57:15.455Z,7.70
2019-03-21T06:58:15.509Z,8.90
2019-03-21T06:59:15.560Z,9.80
2019-03-21T07:00:15.711Z,8.40
2019-03-21T07:01:15.669Z,7.10
2019-03-21T07:02:15.716Z,8.90
2019-03-21T07:03:16.509Z,10.20
2019-03-21T07:04:15.819Z,10.70
2019-03-21T07:05:15.871Z,10.20
2019-03-21T07:06:15.925Z,8.60
2019-03-21T07:07:15.975Z,8.70
2019-03-21T07:08:16.026Z,9.80
2019-03-21T07:09:16.083Z,8.10
2019-03-21T07:10:16.133Z,8.80
2019-03-21T07:11:16.186Z,6.80
2019-03-21T07:12:16.238Z,8.70
2019-03-21T07:13:16.288Z,8.70
2019-03-21T07:14:16.339Z,8.40
2019-03-21T07:15:16.393Z,10.10
2019-03-21T07:16:16.444Z,9.60
2019-03-21T07:17:16.496Z,7.50
2019-03-21T07:18:16.551Z,8.10
2019-03-21T07:19:16.600Z,9.80
2019-03-21T07:20:16.654Z,8.10
2019-03-21T07:21:16.705Z,7.30
2019-03-21T07:22:16.757Z,7.30
2019-03-21T07:23:16.811Z,6.60
2019-03-21T07:24:16.862Z,7.80
2019-03-21T07:25:16.913Z,10.00
2019-03-21T07:26:16.966Z,7.50
2019-03-21T07:27:17.019Z,8.00
2019-03-21T07:28:17.071Z,7.60
2019-03-21T07:29:17.123Z,7.60
2019-03-21T07:30:17.176Z,8.80
2019-03-21T07:31:17.228Z,8.50
2019-03-21T07:32:17.280Z,6.90
2019-03-21T07:33:17.335Z,8.00
2019-03-21T07:34:17.385Z,8.20
2019-03-21T07:35:17.437Z,6.90
2019-03-21T07:36:17.488Z,8.20
2019-03-21T07:37:17.542Z,7.80
2019-03-21T07:38:17.594Z,12.00
2019-03-21T07:39:17.649Z,8.60
2019-03-21T07:40:17.697Z,7.50
2019-03-21T07:41:17.751Z,8.30
2019-03-21T07:42:17.824Z,6.90
2019-03-21T07:43:17.857Z,6.50
2019-03-21T07:44:17.908Z,8.90
2019-03-21T07:45:17.960Z,7.40
2019-03-21T07:46:18.016Z,8.10
2019-03-21T07:47:18.064Z,7.80
2019-03-21T07:48:18.492Z,8.60
2019-03-21T07:49:18.169Z,7.00
2019-03-21T07:50:18.225Z,7.90
2019-03-21T07:52:18.325Z,8.10
2019-03-21T07:53:18.378Z,7.60
2019-03-21T07:54:18.432Z,8.30
2019-03-21T07:55:18.484Z,10.50
2019-03-21T07:56:18.538Z,9.00
2019-03-21T07:57:18.589Z,6.50
2019-03-21T07:58:18.639Z,8.20
2019-03-21T07:59:18.696Z,6.70
2019-03-21T08:00:18.748Z,6.10
2019-03-21T08:01:18.798Z,7.70
2019-03-21T08:02:18.850Z,7.40
2019-03-21T08:03:18.903Z,8.70
2019-03-21T08:04:18.955Z,8.20
2019-03-21T08:05:19.008Z,6.70
2019-03-21T08:06:19.062Z,8.00
2019-03-21T08:07:19.117Z,6.50
2019-03-21T08:08:19.166Z,7.30
2019-03-21T08:09:19.220Z,7.30
2019-03-21T08:10:19.273Z,8.40
2019-03-21T08:11:19.332Z,9.90
2019-03-21T08:12:19.386Z,6.30
2019-03-21T08:13:19.431Z,9.10
2019-03-21T08:14:19.485Z,9.20
2019-03-21T08:15:19.535Z,9.30
2019-03-21T08:16:19.587Z,8.80
2019-03-21T08:17:19.658Z,8.20
2019-03-21T08:18:19.693Z,9.80
2019-03-21T08:19:19.748Z,7.20
2019-03-21T08:20:20.765Z,13.90
2019-03-21T08:21:20.430Z,14.10
2019-03-21T08:22:19.905Z,19.50
2019-03-21T08:23:19.959Z,14.60
2019-03-21T08:24:20.010Z,12.80
2019-03-21T08:25:20.064Z,16.90
2019-03-21T08:26:20.117Z,11.50
2019-03-21T08:27:20.171Z,8.80
2019-03-21T08:28:20.223Z,8.70
2019-03-21T08:29:20.280Z,9.30
2019-03-21T08:30:20.332Z,11.20
2019-03-21T08:31:20.383Z,8.00
2019-03-21T08:32:20.436Z,9.70
2019-03-21T08:33:20.488Z,10.00
2019-03-21T08:34:20.541Z,8.60
2019-03-21T08:35:20.596Z,11.40
2019-03-21T08:36:20.651Z,10.20
2019-03-21T08:37:20.705Z,8.90
2019-03-21T08:38:20.755Z,10.80
2019-03-21T08:39:20.812Z,10.20
2019-03-21T08:40:20.861Z,11.50
2019-03-21T08:41:20.915Z,8.70
2019-03-21T08:42:20.970Z,10.90
2019-03-21T08:43:21.021Z,8.80
2019-03-21T08:44:21.147Z,10.50
2019-03-21T08:45:21.129Z,10.00
2019-03-21T08:46:21.184Z,9.50
2019-03-21T08:47:21.334Z,9.50
2019-03-21T08:48:21.292Z,11.20
2019-03-21T08:49:21.347Z,12.00
2019-03-21T08:50:21.398Z,11.50
2019-03-21T08:51:21.453Z,12.40
2019-03-21T08:52:21.505Z,15.30
2019-03-21T08:53:21.559Z,10.70
2019-03-21T08:54:21.617Z,10.50
2019-03-21T08:55:21.671Z,12.00
2019-03-21T08:56:21.721Z,10.80
2019-03-21T08:57:21.774Z,13.30
2019-03-21T08:58:21.829Z,14.20
2019-03-21T08:59:21.884Z,12.20
2019-03-21T09:00:21.937Z,10.10
2019-03-21T09:01:21.992Z,10.40
2019-03-21T09:02:22.046Z,12.40
2019-03-21T09:03:22.100Z,10.90
2019-03-21T09:04:22.156Z,10.60
2019-03-21T09:05:22.208Z,10.80
2019-03-21T09:06:22.263Z,12.30
2019-03-21T09:07:22.334Z,11.80
2019-03-21T09:08:22.372Z,13.70
2019-03-21T09:09:22.428Z,10.00
2019-03-21T09:10:22.508Z,14.20
2019-03-21T09:11:22.537Z,10.70
2019-03-21T09:12:22.592Z,11.60
2019-03-21T09:13:22.644Z,11.10
2019-03-21T09:14:22.699Z,15.50
2019-03-21T09:15:22.766Z,12.30
2019-03-21T09:16:22.808Z,10.20
2019-03-21T09:17:22.863Z,13.60
2019-03-21T09:18:22.916Z,14.00
2019-03-21T09:19:22.972Z,12.00
2019-03-21T09:20:23.029Z,13.60
2019-03-21T09:21:23.081Z,11.80
2019-03-21T09:22:23.139Z,11.60
2019-03-21T09:23:23.194Z,13.20
2019-03-21T09:24:23.246Z,12.10
2019-03-21T09:25:23.303Z,13.50
2019-03-21T09:26:23.357Z,12.30
2019-03-21T09:27:23.411Z,10.50
2019-03-21T09:28:23.469Z,10.10
2019-03-21T09:29:23.521Z,13.00
2019-03-21T09:30:23.577Z,13.00
2019-03-21T09:31:23.630Z,10.80
2019-03-21T09:32:23.727Z,11.40
2019-03-21T09:33:23.742Z,11.80
2019-03-21T09:34:23.797Z,10.20
2019-03-21T09:35:23.852Z,8.70
2019-03-21T09:36:23.907Z,10.30
2019-03-21T09:37:23.962Z,11.30
2019-03-21T09:38:24.020Z,10.80
2019-03-21T09:39:24.076Z,10.90
2019-03-21T09:40:24.128Z,9.50
2019-03-21T09:41:24.186Z,11.90
2019-03-21T09:42:24.239Z,13.30
2019-03-21T09:43:24.295Z,12.20
2019-03-21T09:44:24.351Z,8.00
2019-03-21T09:45:24.407Z,10.40
2019-03-21T09:46:24.462Z,10.60
2019-03-21T09:47:24.517Z,11.90
2019-03-21T09:48:24.573Z,9.50
2019-03-21T09:49:24.628Z,12.50
2019-03-21T09:50:24.685Z,9.30
2019-03-21T09:51:30.849Z,9.80
2019-03-21T09:52:25.400Z,11.00
2019-03-21T09:53:24.851Z,11.20
2019-03-21T09:54:24.910Z,10.80
2019-03-21T09:55:24.965Z,9.20
2019-03-21T09:56:25.021Z,11.80
2019-03-21T09:57:25.076Z,11.50
2019-03-21T09:58:25.134Z,11.00
2019-03-21T09:59:25.190Z,10.70
2019-03-21T10:00:25.244Z,9.90
2019-03-21T10:01:25.300Z,12.60
2019-03-21T10:02:25.358Z,10.20
2019-03-21T10:03:25.413Z,16.90
2019-03-21T10:04:25.469Z,11.70
2019-03-21T10:05:25.525Z,11.40
2019-03-21T10:06:25.581Z,13.80
2019-03-21T10:07:25.641Z,10.60
2019-03-21T10:08:28.801Z,11.70
2019-03-21T10:09:25.749Z,10.90
2019-03-21T10:10:25.811Z,16.60
2019-03-21T10:11:25.865Z,25.40
2019-03-21T10:12:25.921Z,16.90
2019-03-21T10:13:25.978Z,11.80
2019-03-21T10:14:26.038Z,10.20
2019-03-21T10:15:26.833Z,10.90
2019-03-21T10:16:26.147Z,8.60
2019-03-21T10:17:26.202Z,8.90
2019-03-21T10:18:26.261Z,8.90
2019-03-21T10:19:26.319Z,9.40
2019-03-21T10:20:26.373Z,8.10
2019-03-21T10:21:26.429Z,7.50
2019-03-21T10:22:26.486Z,5.30
2019-03-21T10:23:26.545Z,8.00
2019-03-21T10:24:26.599Z,8.80
2019-03-21T10:25:27.019Z,7.10
2019-03-21T10:26:26.714Z,8.00
2019-03-21T10:27:26.770Z,7.70
2019-03-21T10:28:26.828Z,7.90
2019-03-21T10:29:26.885Z,7.00
2019-03-21T10:30:26.942Z,5.40
2019-03-21T10:31:27.000Z,8.60
2019-03-21T10:32:27.063Z,6.30
2019-03-21T10:33:27.114Z,6.50
2019-03-21T10:34:27.175Z,7.10
2019-03-21T10:35:27.228Z,5.20
2019-03-21T10:36:27.287Z,5.40
2019-03-21T10:37:27.342Z,7.70
2019-03-21T10:38:27.400Z,6.80
2019-03-21T10:39:27.459Z,3.90
2019-03-21T10:40:27.513Z,6.50
2019-03-21T10:41:27.573Z,6.50
2019-03-21T10:42:27.630Z,6.10
2019-03-21T10:44:10.125Z,5.10
2019-03-21T10:45:10.183Z,6.20
2019-03-21T10:46:10.239Z,6.60
2019-03-21T10:47:12.921Z,7.80
2019-03-21T10:48:10.355Z,5.80
2019-03-21T10:49:10.415Z,6.10
2019-03-21T10:50:10.471Z,6.40
2019-03-21T10:51:10.528Z,4.90
2019-03-21T10:52:10.589Z,6.70
2019-03-21T10:53:10.643Z,7.70
2019-03-21T10:54:10.701Z,5.60
2019-03-21T10:55:10.759Z,7.20
2019-03-21T10:56:10.822Z,5.50
2019-03-21T10:57:10.880Z,7.90
2019-03-21T10:58:10.937Z,6.20
2019-03-21T10:59:10.990Z,7.70
2019-03-21T11:00:11.048Z,4.70
2019-03-21T11:01:11.108Z,6.10
2019-03-21T11:02:11.165Z,5.30
2019-03-21T11:03:11.225Z,5.80
2019-03-21T11:04:11.283Z,4.50
2019-03-21T11:05:11.340Z,4.60
2019-03-21T11:06:11.400Z,5.00
2019-03-21T11:07:11.458Z,8.10
2019-03-21T11:08:11.515Z,5.00
2019-03-21T11:09:11.577Z,5.10
2019-03-21T11:10:11.635Z,5.00
2019-03-21T11:11:11.696Z,7.50
2019-03-21T11:13:11.826Z,7.00
2019-03-21T11:14:11.876Z,4.20
2019-03-21T11:15:11.951Z,5.60
2019-03-21T11:16:11.998Z,4.90
2019-03-21T11:17:12.061Z,8.10
2019-03-21T11:18:12.122Z,5.70
2019-03-21T11:19:12.185Z,9.40
2019-03-21T11:20:12.243Z,4.90
2019-03-21T11:21:12.309Z,5.10
2019-03-21T11:22:12.368Z,5.70
2019-03-21T11:23:12.438Z,5.30
2019-03-21T11:24:12.512Z,6.50
2019-03-21T11:25:12.555Z,6.90
2019-03-21T11:26:12.618Z,7.60
2019-03-21T11:27:12.680Z,5.20
2019-03-21T11:28:12.742Z,6.30
2019-03-21T11:29:12.806Z,4.90
2019-03-21T11:30:16.247Z,6.60
2019-03-21T11:31:12.963Z,8.80
2019-03-21T11:32:13.496Z,6.90
2019-03-21T11:33:13.085Z,6.70
2019-03-21T11:34:13.122Z,4.60
2019-03-21T11:35:14.054Z,5.30
2019-03-21T11:36:13.817Z,5.10
2019-03-21T11:37:13.316Z,5.80
2019-03-21T11:38:13.382Z,7.20
2019-03-21T11:39:13.442Z,5.60
2019-03-21T11:40:13.510Z,6.00
2019-03-21T11:41:13.570Z,7.70
2019-03-21T11:42:13.640Z,5.60
2019-03-21T11:43:13.702Z,8.20
2019-03-21T11:44:14.365Z,6.30
2019-03-21T11:45:15.114Z,6.60
2019-03-21T11:46:13.894Z,6.00
2019-03-21T11:47:13.965Z,7.00
2019-03-21T11:48:14.032Z,6.30
2019-03-21T11:49:14.093Z,7.40
2019-03-21T11:50:14.152Z,5.10
2019-03-21T11:51:14.215Z,5.50
2019-03-21T11:52:18.546Z,4.70
2019-03-21T11:53:14.345Z,6.00
2019-03-21T11:54:14.407Z,7.50
2019-03-21T11:55:14.486Z,5.70
2019-03-21T11:56:14.538Z,6.30
2019-03-21T11:57:14.602Z,7.70
2019-03-21T11:58:14.669Z,6.10
2019-03-21T11:59:14.732Z,6.40
2019-03-21T12:00:14.796Z,7.60
2019-03-21T12:01:14.861Z,6.90
2019-03-21T12:02:26.250Z,5.90
2019-03-21T12:03:14.991Z,6.50
2019-03-21T12:04:15.055Z,5.80
2019-03-21T12:05:15.120Z,6.90
2019-03-21T12:06:15.188Z,6.30
2019-03-21T12:07:16.072Z,5.70
2019-03-21T12:08:15.378Z,7.10
2019-03-21T12:09:15.381Z,8.70
2019-03-21T12:10:15.443Z,6.50
2019-03-21T12:11:15.509Z,6.80
2019-03-21T12:12:15.574Z,9.10
2019-03-21T12:13:15.640Z,6.60
2019-03-21T12:14:15.703Z,6.00
2019-03-21T12:15:15.771Z,6.50
2019-03-21T12:16:15.842Z,5.00
2019-03-21T12:17:16.398Z,5.80
2019-03-21T12:18:15.963Z,8.30
2019-03-21T12:19:16.028Z,6.60
2019-03-21T12:20:16.092Z,5.10
2019-03-21T12:21:16.157Z,5.70
2019-03-21T12:22:16.222Z,5.50
2019-03-21T12:23:16.841Z,6.10
2019-03-21T12:24:16.394Z,5.80
2019-03-21T12:25:16.416Z,6.60
2019-03-21T12:26:16.489Z,6.00
2019-03-21T12:27:16.545Z,5.20
2019-03-21T12:28:16.610Z,6.80
2019-03-21T12:29:16.674Z,6.80
2019-03-21T12:30:16.740Z,6.50
2019-03-21T12:31:16.805Z,6.30
2019-03-21T12:32:16.868Z,6.60
2019-03-21T12:33:16.933Z,6.10
2019-03-21T12:34:17.001Z,5.70
2019-03-21T12:35:17.064Z,4.90
2019-03-21T12:36:17.128Z,5.30
2019-03-21T12:37:17.192Z,4.30
2019-03-21T12:38:17.257Z,4.10
2019-03-21T12:39:17.323Z,5.70
2019-03-21T12:40:17.391Z,5.40
2019-03-21T12:41:17.454Z,4.90
2019-03-21T12:42:17.520Z,6.40
2019-03-21T12:43:17.582Z,5.20
2019-03-21T12:44:17.651Z,5.10
2019-03-21T12:45:17.712Z,6.90
2019-03-21T12:46:17.777Z,6.90
2019-03-21T12:47:17.842Z,7.90
2019-03-21T12:48:17.908Z,5.60
2019-03-21T12:49:17.973Z,7.50
2019-03-21T12:50:18.037Z,6.90
2019-03-21T12:51:18.103Z,4.10
2019-03-21T12:52:18.167Z,5.60
2019-03-21T12:53:18.232Z,7.40
2019-03-21T12:54:18.296Z,5.20
2019-03-21T12:55:18.363Z,6.10
2019-03-21T12:56:18.426Z,6.80
2019-03-21T12:57:18.492Z,6.80
2019-03-21T12:58:18.576Z,6.00
2019-03-21T12:59:18.624Z,6.20
2019-03-21T13:00:18.685Z,6.20
2019-03-21T13:01:18.752Z,4.50
2019-03-21T13:02:18.815Z,7.10
2019-03-21T13:03:18.886Z,8.30
2019-03-21T13:04:18.945Z,5.70
2019-03-21T13:05:19.009Z,5.40
2019-03-21T13:06:19.076Z,6.40
2019-03-21T13:07:19.463Z,5.80
2019-03-21T13:08:19.206Z,5.50
2019-03-21T13:09:19.268Z,7.00
2019-03-21T13:10:19.361Z,5.20
2019-03-21T13:11:19.399Z,5.60
2019-03-21T13:12:19.470Z,6.50
2019-03-21T13:13:20.135Z,5.00
2019-03-21T13:14:19.592Z,3.90
2019-03-21T13:15:29.415Z,3.70
2019-03-21T13:16:19.722Z,6.70
2019-03-21T13:17:19.787Z,5.00
2019-03-21T13:18:19.855Z,5.70